createdAt,value
2018-01-18T00:00:27.255Z,4.80
2018-01-18T00:02:53.499Z,4.80
2018-01-18T00:05:19.743Z,4.80
2018-01-18T00:07:46.738Z,4.80
2018-01-18T00:10:13.652Z,4.80
2018-01-18T00:12:39.880Z,4.80
2018-01-18T00:15:06.207Z,4.80
2018-01-18T00:17:32.471Z,4.80
2018-01-18T00:19:59.746Z,4.80
2018-01-18T00:22:25.974Z,4.80
2018-01-18T00:24:52.240Z,4.90
2018-01-18T00:27:18.491Z,4.80
2018-01-18T00:29:44.754Z,4.80
2018-01-18T00:32:13.796Z,4.90
2018-01-18T00:34:41.194Z,4.90
2018-01-18T00:37:07.471Z,4.90
2018-01-18T00:39:34.016Z,4.90
2018-01-18T00:42:00.282Z,4.90
2018-01-18T00:44:27.275Z,4.90
2018-01-18T00:46:53.537Z,4.80
2018-01-18T00:49:19.811Z,4.80
2018-01-18T00:51:46.053Z,4.70
2018-01-18T00:54:12.342Z,4.70
2018-01-18T00:56:38.577Z,4.70
2018-01-18T00:59:05.578Z,4.40
2018-01-18T01:01:32.115Z,4.60
2018-01-18T01:03:58.421Z,4.60
2018-01-18T01:06:24.828Z,4.60
2018-01-18T01:08:51.046Z,4.60
2018-01-18T01:11:17.803Z,4.60
2018-01-18T01:13:44.030Z,4.50
2018-01-18T01:16:10.278Z,4.50
2018-01-18T01:18:36.549Z,4.50
2018-01-18T01:21:02.807Z,4.50
2018-01-18T01:23:29.071Z,4.50
2018-01-18T01:25:55.339Z,4.50
2018-01-18T01:28:21.635Z,4.50
2018-01-18T01:30:48.806Z,4.50
2018-01-18T01:33:15.051Z,4.50
2018-01-18T01:35:41.795Z,4.50
2018-01-18T01:38:08.026Z,4.50
2018-01-18T01:40:34.270Z,4.50
2018-01-18T01:43:00.531Z,4.40
2018-01-18T01:45:26.874Z,4.50
2018-01-18T01:47:53.130Z,4.50
2018-01-18T01:50:19.483Z,4.50
2018-01-18T01:52:45.735Z,4.50
2018-01-18T01:55:12.039Z,4.50
2018-01-18T01:57:38.302Z,4.60
2018-01-18T02:00:04.615Z,4.70
2018-01-18T02:02:30.885Z,4.70
2018-01-18T02:04:57.200Z,4.80
2018-01-18T02:07:23.462Z,4.80
2018-01-18T02:09:50.435Z,4.80
2018-01-18T02:12:16.726Z,4.70
2018-01-18T02:14:42.995Z,4.80
2018-01-18T02:17:09.299Z,4.80
2018-01-18T02:19:35.563Z,4.90
2018-01-18T02:22:01.823Z,4.90
2018-01-18T02:24:28.090Z,4.90
2018-01-18T02:26:54.307Z,4.90
2018-01-18T02:29:20.572Z,4.90
2018-01-18T02:31:46.814Z,4.90
2018-01-18T02:34:13.067Z,4.80
2018-01-18T02:36:39.316Z,4.80
2018-01-18T02:39:05.593Z,4.80
2018-01-18T02:41:31.854Z,4.90
2018-01-18T02:43:58.116Z,4.90
2018-01-18T02:46:24.363Z,4.90
2018-01-18T02:48:51.743Z,5.00
2018-01-18T02:51:17.988Z,5.00
2018-01-18T02:53:44.563Z,4.90
2018-01-18T02:56:10.786Z,5.00
2018-01-18T02:58:37.140Z,5.00
2018-01-18T03:01:04.103Z,5.00
2018-01-18T03:03:30.375Z,5.00
2018-01-18T03:05:56.638Z,5.00
2018-01-18T03:08:23.038Z,5.00
2018-01-18T03:10:49.313Z,5.00
2018-01-18T03:13:16.384Z,5.10
2018-01-18T03:15:42.683Z,5.00
2018-01-18T03:18:08.942Z,5.00
2018-01-18T03:20:35.229Z,5.00
2018-01-18T03:23:01.488Z,5.00
2018-01-18T03:25:27.738Z,5.00
2018-01-18T03:27:54.575Z,5.00
2018-01-18T03:30:20.848Z,5.00
2018-01-18T03:32:48.015Z,5.00
2018-01-18T03:35:14.255Z,5.00
2018-01-18T03:37:40.555Z,5.00
2018-01-18T03:40:06.804Z,5.00
2018-01-18T03:42:33.071Z,5.00
2018-01-18T03:44:59.320Z,5.00
2018-01-18T03:47:26.333Z,5.00
2018-01-18T03:49:52.574Z,5.00
2018-01-18T03:52:18.815Z,5.00
2018-01-18T03:54:45.042Z,5.00
2018-01-18T03:57:12.472Z,4.90
2018-01-18T03:59:38.723Z,4.90
2018-01-18T04:02:04.979Z,4.90
2018-01-18T04:04:31.976Z,4.90
2018-01-18T04:06:58.317Z,4.90
2018-01-18T04:09:24.578Z,4.90
2018-01-18T04:11:50.806Z,4.90
2018-01-18T04:14:17.051Z,4.90
2018-01-18T04:16:44.052Z,4.80
2018-01-18T04:19:10.331Z,4.80
2018-01-18T04:21:37.320Z,4.80
2018-01-18T04:24:03.799Z,4.80
2018-01-18T04:26:30.060Z,4.80
2018-01-18T04:28:56.332Z,4.80
2018-01-18T04:31:22.689Z,4.80
2018-01-18T04:33:48.974Z,4.80
2018-01-18T04:36:15.219Z,4.70
2018-01-18T04:38:41.465Z,4.70
2018-01-18T04:41:12.308Z,4.80
2018-01-18T04:43:45.016Z,4.80
2018-01-18T04:46:11.343Z,4.80
2018-01-18T04:48:41.425Z,4.80
2018-01-18T04:51:07.688Z,4.90
2018-01-18T04:53:33.983Z,4.90
2018-01-18T04:56:00.242Z,4.80
2018-01-18T04:58:26.475Z,4.90
2018-01-18T05:00:52.731Z,4.90
2018-01-18T05:03:19.705Z,4.90
2018-01-18T05:05:45.970Z,4.90
2018-01-18T05:08:12.220Z,5.00
2018-01-18T05:10:38.491Z,5.00
2018-01-18T05:13:04.735Z,5.10
2018-01-18T05:15:30.971Z,5.10
2018-01-18T05:17:57.281Z,5.20
2018-01-18T05:20:23.536Z,5.20
2018-01-18T05:22:49.931Z,5.10
2018-01-18T05:25:16.912Z,5.10
2018-01-18T05:27:43.171Z,5.10
2018-01-18T05:30:09.408Z,5.20
2018-01-18T05:32:35.686Z,5.20
2018-01-18T05:35:01.950Z,5.20
2018-01-18T05:37:28.216Z,5.30
2018-01-18T05:39:55.208Z,5.40
2018-01-18T05:42:21.439Z,5.40
2018-01-18T05:47:15.995Z,5.40
2018-01-18T05:49:43.007Z,5.50
2018-01-18T05:52:09.251Z,5.50
2018-01-18T05:54:35.519Z,5.50
2018-01-18T05:57:01.980Z,5.50
2018-01-18T05:59:28.273Z,5.60
2018-01-18T06:01:54.719Z,5.60
2018-01-18T06:04:26.918Z,5.60
2018-01-18T06:06:54.046Z,5.70
2018-01-18T06:09:20.369Z,5.70
2018-01-18T06:11:46.623Z,5.80
2018-01-18T06:14:12.859Z,5.80
2018-01-18T06:16:39.134Z,5.90
2018-01-18T06:19:05.398Z,5.90
2018-01-18T06:21:32.894Z,6.00
2018-01-18T06:23:59.540Z,6.00
2018-01-18T06:26:25.827Z,6.00
2018-01-18T06:28:53.031Z,6.10
2018-01-18T06:31:21.723Z,6.10
2018-01-18T06:33:49.457Z,6.10
2018-01-18T06:36:15.848Z,6.10
2018-01-18T06:38:42.302Z,6.20
2018-01-18T06:41:08.678Z,6.30
2018-01-18T06:43:38.925Z,6.40
2018-01-18T06:46:06.203Z,6.40
2018-01-18T06:48:32.474Z,6.50
2018-01-18T06:50:59.455Z,6.90
2018-01-18T06:53:25.731Z,6.90
2018-01-18T06:55:52.854Z,7.30
2018-01-18T06:58:19.652Z,7.20
2018-01-18T07:00:46.311Z,7.50
2018-01-18T07:03:13.935Z,7.70
2018-01-18T07:05:40.328Z,7.70
2018-01-18T07:08:06.700Z,7.80
2018-01-18T07:13:01.153Z,7.80
2018-01-18T07:15:27.443Z,7.90
2018-01-18T07:17:54.420Z,7.90
2018-01-18T07:20:20.709Z,7.90
2018-01-18T07:25:18.483Z,8.20
2018-01-18T07:27:44.726Z,8.20
2018-01-18T07:30:10.970Z,8.20
2018-01-18T07:32:37.235Z,8.10
2018-01-18T07:35:03.487Z,8.20
2018-01-18T07:40:33.664Z,8.20
2018-01-18T07:43:01.064Z,8.60
2018-01-18T07:45:27.718Z,8.60
2018-01-18T07:47:53.979Z,8.70
2018-01-18T07:50:20.327Z,8.90
2018-01-18T07:52:47.755Z,8.90
2018-01-18T07:55:13.985Z,8.90
2018-01-18T07:57:40.255Z,9.00
2018-01-18T08:00:06.495Z,9.10
2018-01-18T08:02:44.806Z,9.20
2018-01-18T08:05:11.083Z,9.20
2018-01-18T08:07:37.330Z,9.40
2018-01-18T08:10:06.707Z,9.60
2018-01-18T08:12:32.918Z,9.60
2018-01-18T08:14:59.171Z,9.60
2018-01-18T08:17:25.455Z,9.60
2018-01-18T08:19:51.731Z,9.70
2018-01-18T08:22:17.983Z,9.70
2018-01-18T08:24:44.264Z,9.80
2018-01-18T08:27:10.527Z,10.00
2018-01-18T08:29:36.790Z,10.10
2018-01-18T08:32:03.026Z,10.20
2018-01-18T08:34:30.499Z,10.40
2018-01-18T08:36:56.738Z,10.40
2018-01-18T08:39:24.694Z,10.50
2018-01-18T08:49:16.555Z,10.60
2018-01-18T08:51:42.809Z,10.70
2018-01-18T08:54:12.843Z,10.80
2018-01-18T08:56:39.367Z,10.80
2018-01-18T08:59:05.614Z,10.80
2018-01-18T09:01:32.620Z,11.00
2018-01-18T09:03:58.858Z,11.00
2018-01-18T09:08:53.310Z,11.00
2018-01-18T09:13:47.807Z,11.10
2018-01-18T09:16:14.040Z,11.10
2018-01-18T09:18:41.179Z,11.20
2018-01-18T09:21:07.445Z,11.20
2018-01-18T09:23:34.619Z,11.20
2018-01-18T09:26:00.854Z,11.20
2018-01-18T09:30:59.999Z,11.30
2018-01-18T09:33:26.323Z,11.30
2018-01-18T09:35:52.575Z,11.30
2018-01-18T09:38:18.906Z,11.30
2018-01-18T09:40:45.263Z,11.30
2018-01-18T09:43:11.515Z,11.30
2018-01-18T09:45:38.123Z,11.30
2018-01-18T09:48:04.371Z,11.40
2018-01-18T09:50:31.166Z,11.40
2018-01-18T09:52:57.408Z,11.40
2018-01-18T10:02:56.838Z,11.20
2018-01-18T10:57:31.351Z,9.30
